sensor_id;sensor_type;location;lat;lon;timestamp;P1;durP1;ratioP1;P2;durP2;ratioP2
21392;SDS011;10857;52.228;21.026;2022-10-29T00:01:09;20.17;;;12.98;;
21392;SDS011;10857;52.228;21.026;2022-10-29T00:03:36;26.42;;;13.27;;
21392;SDS011;10857;52.228;21.026;2022-10-29T00:06:04;19.95;;;13.35;;
21392;SDS011;10857;52.228;21.026;2022-10-29T00:08:34;18.42;;;12.73;;
21392;SDS011;10857;52.228;21.026;2022-10-29T00:11:08;22.42;;;13.52;;
21392;SDS011;10857;52.228;21.026;2022-10-29T00:13:40;20.30;;;12.90;;
21392;SDS011;10857;52.228;21.026;2022-10-29T00:16:10;20.45;;;13.20;;
21392;SDS011;10857;52.228;21.026;2022-10-29T00:18:39;20.17;;;13.48;;
21392;SDS011;10857;52.228;21.026;2022-10-29T00:21:09;19.80;;;12.77;;
21392;SDS011;10857;52.228;21.026;2022-10-29T00:23:42;24.52;;;12.75;;
21392;SDS011;10857;52.228;21.026;2022-10-29T00:26:11;21.73;;;13.18;;
21392;SDS011;10857;52.228;21.026;2022-10-29T00:28:38;22.85;;;13.45;;
21392;SDS011;10857;52.228;21.026;2022-10-29T00:31:07;18.25;;;12.90;;
21392;SDS011;10857;52.228;21.026;2022-10-29T00:33:39;22.63;;;13.98;;
21392;SDS011;10857;52.228;21.026;2022-10-29T00:36:18;20.70;;;12.98;;
21392;SDS011;10857;52.228;21.026;2022-10-29T00:38:49;18.98;;;12.15;;
21392;SDS011;10857;52.228;21.026;2022-10-29T00:41:18;18.50;;;11.90;;
21392;SDS011;10857;52.228;21.026;2022-10-29T00:43:49;17.70;;;11.93;;
21392;SDS011;10857;52.228;21.026;2022-10-29T00:46:42;19.45;;;12.10;;
21392;SDS011;10857;52.228;21.026;2022-10-29T00:49:14;21.38;;;12.38;;
21392;SDS011;10857;52.228;21.026;2022-10-29T00:51:42;19.15;;;12.35;;
21392;SDS011;10857;52.228;21.026;2022-10-29T00:54:13;22.27;;;12.45;;
21392;SDS011;10857;52.228;21.026;2022-10-29T00:56:54;24.55;;;12.05;;
21392;SDS011;10857;52.228;21.026;2022-10-29T00:59:25;20.63;;;12.43;;
21392;SDS011;10857;52.228;21.026;2022-10-29T01:01:52;20.35;;;12.23;;
21392;SDS011;10857;52.228;21.026;2022-10-29T01:04:21;19.13;;;11.90;;
21392;SDS011;10857;52.228;21.026;2022-10-29T01:06:50;20.33;;;12.73;;
21392;SDS011;10857;52.228;21.026;2022-10-29T01:09:18;19.38;;;11.88;;
21392;SDS011;10857;52.228;21.026;2022-10-29T01:15:07;20.20;;;11.10;;
21392;SDS011;10857;52.228;21.026;2022-10-29T01:21:05;21.33;;;11.88;;
21392;SDS011;10857;52.228;21.026;2022-10-29T01:29:13;21.27;;;11.77;;
21392;SDS011;10857;52.228;21.026;2022-10-29T01:34:48;21.83;;;12.23;;
21392;SDS011;10857;52.228;21.026;2022-10-29T01:40:32;19.10;;;11.88;;
21392;SDS011;10857;52.228;21.026;2022-10-29T01:43:15;22.13;;;12.70;;
21392;SDS011;10857;52.228;21.026;2022-10-29T01:45:55;21.33;;;12.45;;
21392;SDS011;10857;52.228;21.026;2022-10-29T01:48:30;16.80;;;11.90;;
21392;SDS011;10857;52.228;21.026;2022-10-29T01:51:03;20.38;;;11.60;;
21392;SDS011;10857;52.228;21.026;2022-10-29T01:53:36;19.77;;;11.95;;
21392;SDS011;10857;52.228;21.026;2022-10-29T01:56:04;20.98;;;11.75;;
21392;SDS011;10857;52.228;21.026;2022-10-29T01:58:31;20.25;;;11.68;;
21392;SDS011;10857;52.228;21.026;2022-10-29T02:01:06;17.90;;;11.82;;
21392;SDS011;10857;52.228;21.026;2022-10-29T02:06:27;19.13;;;11.48;;
21392;SDS011;10857;52.228;21.026;2022-10-29T02:15:02;18.40;;;11.35;;
21392;SDS011;10857;52.228;21.026;2022-10-29T02:17:34;17.33;;;10.80;;
21392;SDS011;10857;52.228;21.026;2022-10-29T02:20:06;18.17;;;11.48;;
21392;SDS011;10857;52.228;21.026;2022-10-29T02:22:35;24.08;;;11.38;;
21392;SDS011;10857;52.228;21.026;2022-10-29T02:25:02;18.23;;;11.40;;
21392;SDS011;10857;52.228;21.026;2022-10-29T02:27:35;19.42;;;11.13;;
21392;SDS011;10857;52.228;21.026;2022-10-29T02:30:03;17.65;;;11.27;;
21392;SDS011;10857;52.228;21.026;2022-10-29T02:32:30;21.35;;;11.20;;
21392;SDS011;10857;52.228;21.026;2022-10-29T02:35:00;18.67;;;10.63;;
21392;SDS011;10857;52.228;21.026;2022-10-29T02:40:14;16.65;;;10.80;;
21392;SDS011;10857;52.228;21.026;2022-10-29T02:42:40;18.85;;;11.02;;
21392;SDS011;10857;52.228;21.026;2022-10-29T02:45:09;20.45;;;11.27;;
21392;SDS011;10857;52.228;21.026;2022-10-29T02:47:36;20.05;;;11.60;;
21392;SDS011;10857;52.228;21.026;2022-10-29T02:50:03;21.85;;;11.88;;
21392;SDS011;10857;52.228;21.026;2022-10-29T02:52:30;17.25;;;11.18;;
21392;SDS011;10857;52.228;21.026;2022-10-29T02:54:57;19.60;;;11.32;;
21392;SDS011;10857;52.228;21.026;2022-10-29T02:57:26;17.83;;;10.25;;
21392;SDS011;10857;52.228;21.026;2022-10-29T02:59:53;18.38;;;10.75;;
21392;SDS011;10857;52.228;21.026;2022-10-29T03:02:20;19.55;;;10.45;;
21392;SDS011;10857;52.228;21.026;2022-10-29T03:04:47;18.73;;;10.93;;
21392;SDS011;10857;52.228;21.026;2022-10-29T03:07:14;19.50;;;10.75;;
21392;SDS011;10857;52.228;21.026;2022-10-29T03:09:41;21.50;;;10.63;;
21392;SDS011;10857;52.228;21.026;2022-10-29T03:12:08;17.33;;;10.85;;
21392;SDS011;10857;52.228;21.026;2022-10-29T03:14:35;19.65;;;10.82;;
21392;SDS011;10857;52.228;21.026;2022-10-29T03:17:02;16.25;;;10.43;;
21392;SDS011;10857;52.228;21.026;2022-10-29T03:19:29;15.73;;;10.20;;
21392;SDS011;10857;52.228;21.026;2022-10-29T03:21:56;22.65;;;11.00;;
21392;SDS011;10857;52.228;21.026;2022-10-29T03:24:23;23.25;;;11.45;;
21392;SDS011;10857;52.228;21.026;2022-10-29T03:26:50;17.30;;;10.77;;
21392;SDS011;10857;52.228;21.026;2022-10-29T03:29:17;20.40;;;11.18;;
21392;SDS011;10857;52.228;21.026;2022-10-29T03:31:44;20.15;;;11.38;;
21392;SDS011;10857;52.228;21.026;2022-10-29T03:34:11;17.48;;;10.77;;
21392;SDS011;10857;52.228;21.026;2022-10-29T03:36:38;20.17;;;11.55;;
21392;SDS011;10857;52.228;21.026;2022-10-29T03:39:05;17.98;;;10.48;;
21392;SDS011;10857;52.228;21.026;2022-10-29T03:41:33;21.90;;;10.95;;
21392;SDS011;10857;52.228;21.026;2022-10-29T03:44:01;19.65;;;10.68;;
21392;SDS011;10857;52.228;21.026;2022-10-29T03:46:28;16.52;;;10.52;;
21392;SDS011;10857;52.228;21.026;2022-10-29T03:48:55;18.35;;;10.15;;
21392;SDS011;10857;52.228;21.026;2022-10-29T03:51:23;18.58;;;10.52;;
21392;SDS011;10857;52.228;21.026;2022-10-29T03:53:50;18.27;;;10.10;;
21392;SDS011;10857;52.228;21.026;2022-10-29T03:56:17;19.00;;;10.05;;
21392;SDS011;10857;52.228;21.026;2022-10-29T03:58:45;19.98;;;10.80;;
21392;SDS011;10857;52.228;21.026;2022-10-29T04:01:14;21.17;;;10.85;;
21392;SDS011;10857;52.228;21.026;2022-10-29T04:03:41;19.38;;;10.82;;
21392;SDS011;10857;52.228;21.026;2022-10-29T04:06:12;18.58;;;10.85;;
21392;SDS011;10857;52.228;21.026;2022-10-29T04:08:41;18.77;;;10.63;;
21392;SDS011;10857;52.228;21.026;2022-10-29T04:11:11;18.08;;;9.95;;
21392;SDS011;10857;52.228;21.026;2022-10-29T04:13:39;17.83;;;10.30;;
21392;SDS011;10857;52.228;21.026;2022-10-29T04:16:07;17.65;;;9.63;;
21392;SDS011;10857;52.228;21.026;2022-10-29T04:18:34;19.05;;;10.75;;
21392;SDS011;10857;52.228;21.026;2022-10-29T04:21:01;16.65;;;9.45;;
21392;SDS011;10857;52.228;21.026;2022-10-29T04:23:48;19.65;;;9.65;;
21392;SDS011;10857;52.228;21.026;2022-10-29T04:26:35;16.05;;;9.80;;
21392;SDS011;10857;52.228;21.026;2022-10-29T04:29:22;20.02;;;9.52;;
21392;SDS011;10857;52.228;21.026;2022-10-29T04:31:50;16.77;;;9.25;;
21392;SDS011;10857;52.228;21.026;2022-10-29T04:34:18;18.58;;;9.68;;
21392;SDS011;10857;52.228;21.026;2022-10-29T04:36:45;17.83;;;9.77;;
21392;SDS011;10857;52.228;21.026;2022-10-29T04:39:12;19.85;;;9.70;;
21392;SDS011;10857;52.228;21.026;2022-10-29T04:41:42;14.27;;;8.88;;
21392;SDS011;10857;52.228;21.026;2022-10-29T04:44:09;14.80;;;9.30;;
21392;SDS011;10857;52.228;21.026;2022-10-29T04:46:36;18.98;;;9.25;;
21392;SDS011;10857;52.228;21.026;2022-10-29T04:49:03;19.70;;;9.25;;
21392;SDS011;10857;52.228;21.026;2022-10-29T04:51:31;16.23;;;8.73;;
21392;SDS011;10857;52.228;21.026;2022-10-29T04:53:59;26.10;;;9.30;;
21392;SDS011;10857;52.228;21.026;2022-10-29T04:56:27;16.73;;;9.25;;
21392;SDS011;10857;52.228;21.026;2022-10-29T04:58:55;17.77;;;8.65;;
21392;SDS011;10857;52.228;21.026;2022-10-29T05:01:22;20.17;;;9.40;;
21392;SDS011;10857;52.228;21.026;2022-10-29T05:03:49;17.77;;;8.80;;
21392;SDS011;10857;52.228;21.026;2022-10-29T05:06:25;16.03;;;9.03;;
21392;SDS011;10857;52.228;21.026;2022-10-29T05:11:51;16.50;;;8.80;;
21392;SDS011;10857;52.228;21.026;2022-10-29T05:14:19;14.30;;;8.63;;
21392;SDS011;10857;52.228;21.026;2022-10-29T05:16:46;15.45;;;8.82;;
21392;SDS011;10857;52.228;21.026;2022-10-29T05:19:13;17.33;;;9.32;;
21392;SDS011;10857;52.228;21.026;2022-10-29T05:21:41;15.73;;;8.27;;
21392;SDS011;10857;52.228;21.026;2022-10-29T05:24:08;13.88;;;8.27;;
21392;SDS011;10857;52.228;21.026;2022-10-29T05:26:35;16.92;;;8.40;;
21392;SDS011;10857;52.228;21.026;2022-10-29T05:29:02;14.27;;;8.55;;
21392;SDS011;10857;52.228;21.026;2022-10-29T05:31:32;16.23;;;8.38;;
21392;SDS011;10857;52.228;21.026;2022-10-29T05:34:01;14.40;;;8.18;;
21392;SDS011;10857;52.228;21.026;2022-10-29T05:36:30;15.90;;;8.20;;
21392;SDS011;10857;52.228;21.026;2022-10-29T05:38:57;17.80;;;8.27;;
21392;SDS011;10857;52.228;21.026;2022-10-29T05:41:24;13.95;;;8.60;;
21392;SDS011;10857;52.228;21.026;2022-10-29T05:43:51;18.33;;;8.18;;
21392;SDS011;10857;52.228;21.026;2022-10-29T05:46:19;18.70;;;8.30;;
21392;SDS011;10857;52.228;21.026;2022-10-29T05:48:46;13.23;;;8.32;;
21392;SDS011;10857;52.228;21.026;2022-10-29T05:51:14;15.00;;;8.30;;
21392;SDS011;10857;52.228;21.026;2022-10-29T05:53:42;16.85;;;8.40;;
21392;SDS011;10857;52.228;21.026;2022-10-29T05:56:09;18.05;;;8.73;;
21392;SDS011;10857;52.228;21.026;2022-10-29T05:58:36;15.40;;;8.65;;
21392;SDS011;10857;52.228;21.026;2022-10-29T06:01:05;23.05;;;8.23;;
21392;SDS011;10857;52.228;21.026;2022-10-29T06:03:33;19.13;;;8.55;;
21392;SDS011;10857;52.228;21.026;2022-10-29T06:06:00;14.43;;;8.27;;
21392;SDS011;10857;52.228;21.026;2022-10-29T06:08:27;12.48;;;8.15;;
21392;SDS011;10857;52.228;21.026;2022-10-29T06:11:00;13.68;;;7.93;;
21392;SDS011;10857;52.228;21.026;2022-10-29T06:13:31;16.50;;;9.00;;
21392;SDS011;10857;52.228;21.026;2022-10-29T06:15:59;16.42;;;9.15;;
21392;SDS011;10857;52.228;21.026;2022-10-29T06:18:28;19.50;;;8.48;;
21392;SDS011;10857;52.228;21.026;2022-10-29T06:20:57;18.02;;;8.48;;
21392;SDS011;10857;52.228;21.026;2022-10-29T06:23:26;18.52;;;8.68;;
21392;SDS011;10857;52.228;21.026;2022-10-29T06:25:54;15.18;;;7.72;;
21392;SDS011;10857;52.228;21.026;2022-10-29T06:28:23;16.83;;;8.13;;
21392;SDS011;10857;52.228;21.026;2022-10-29T06:30:55;14.98;;;8.18;;
21392;SDS011;10857;52.228;21.026;2022-10-29T06:33:22;13.15;;;8.13;;
21392;SDS011;10857;52.228;21.026;2022-10-29T06:35:49;16.17;;;7.95;;
21392;SDS011;10857;52.228;21.026;2022-10-29T06:38:16;17.27;;;8.32;;
21392;SDS011;10857;52.228;21.026;2022-10-29T06:40:49;13.80;;;8.32;;
21392;SDS011;10857;52.228;21.026;2022-10-29T06:43:20;15.02;;;8.57;;
21392;SDS011;10857;52.228;21.026;2022-10-29T06:45:47;12.65;;;8.05;;
21392;SDS011;10857;52.228;21.026;2022-10-29T06:48:15;16.77;;;8.30;;
21392;SDS011;10857;52.228;21.026;2022-10-29T06:50:48;15.43;;;7.88;;
21392;SDS011;10857;52.228;21.026;2022-10-29T06:53:15;14.93;;;8.30;;
21392;SDS011;10857;52.228;21.026;2022-10-29T06:55:43;17.48;;;8.55;;
21392;SDS011;10857;52.228;21.026;2022-10-29T06:58:11;15.70;;;8.13;;
21392;SDS011;10857;52.228;21.026;2022-10-29T07:00:42;18.17;;;8.30;;
21392;SDS011;10857;52.228;21.026;2022-10-29T07:03:13;17.15;;;8.13;;
21392;SDS011;10857;52.228;21.026;2022-10-29T07:05:41;12.48;;;7.60;;
21392;SDS011;10857;52.228;21.026;2022-10-29T07:08:08;14.60;;;7.93;;
21392;SDS011;10857;52.228;21.026;2022-10-29T07:10:36;19.15;;;8.82;;
21392;SDS011;10857;52.228;21.026;2022-10-29T07:13:03;20.25;;;8.48;;
21392;SDS011;10857;52.228;21.026;2022-10-29T07:15:30;17.35;;;8.55;;
21392;SDS011;10857;52.228;21.026;2022-10-29T07:17:58;16.83;;;8.68;;
21392;SDS011;10857;52.228;21.026;2022-10-29T07:20:34;17.33;;;8.20;;
21392;SDS011;10857;52.228;21.026;2022-10-29T07:23:05;17.05;;;8.98;;
21392;SDS011;10857;52.228;21.026;2022-10-29T07:25:33;16.02;;;8.65;;
21392;SDS011;10857;52.228;21.026;2022-10-29T07:28:05;15.70;;;8.45;;
21392;SDS011;10857;52.228;21.026;2022-10-29T07:30:33;16.05;;;8.27;;
21392;SDS011;10857;52.228;21.026;2022-10-29T07:33:02;17.48;;;9.07;;
21392;SDS011;10857;52.228;21.026;2022-10-29T07:35:31;16.77;;;8.80;;
21392;SDS011;10857;52.228;21.026;2022-10-29T07:38:01;19.00;;;8.98;;
21392;SDS011;10857;52.228;21.026;2022-10-29T07:40:34;19.25;;;8.80;;
21392;SDS011;10857;52.228;21.026;2022-10-29T07:43:05;17.73;;;8.98;;
21392;SDS011;10857;52.228;21.026;2022-10-29T07:45:33;18.08;;;8.98;;
21392;SDS011;10857;52.228;21.026;2022-10-29T07:48:05;18.50;;;9.00;;
21392;SDS011;10857;52.228;21.026;2022-10-29T07:50:36;17.23;;;9.10;;
21392;SDS011;10857;52.228;21.026;2022-10-29T07:53:09;20.52;;;9.18;;
21392;SDS011;10857;52.228;21.026;2022-10-29T07:55:38;19.67;;;9.20;;
21392;SDS011;10857;52.228;21.026;2022-10-29T07:58:11;15.25;;;9.20;;
21392;SDS011;10857;52.228;21.026;2022-10-29T08:00:39;19.65;;;9.15;;
21392;SDS011;10857;52.228;21.026;2022-10-29T08:03:07;23.63;;;9.73;;
21392;SDS011;10857;52.228;21.026;2022-10-29T08:05:38;19.20;;;9.30;;
21392;SDS011;10857;52.228;21.026;2022-10-29T08:08:08;17.70;;;9.13;;
21392;SDS011;10857;52.228;21.026;2022-10-29T08:10:35;17.80;;;9.18;;
21392;SDS011;10857;52.228;21.026;2022-10-29T08:13:03;17.33;;;9.43;;
21392;SDS011;10857;52.228;21.026;2022-10-29T08:15:32;21.98;;;9.35;;
21392;SDS011;10857;52.228;21.026;2022-10-29T08:18:00;20.17;;;9.60;;
21392;SDS011;10857;52.228;21.026;2022-10-29T08:20:30;16.17;;;9.70;;
21392;SDS011;10857;52.228;21.026;2022-10-29T08:22:57;17.77;;;9.73;;
21392;SDS011;10857;52.228;21.026;2022-10-29T08:25:28;19.67;;;9.23;;
21392;SDS011;10857;52.228;21.026;2022-10-29T08:27:59;18.90;;;9.45;;
21392;SDS011;10857;52.228;21.026;2022-10-29T08:30:29;18.00;;;9.82;;
21392;SDS011;10857;52.228;21.026;2022-10-29T08:32:59;22.50;;;9.45;;
21392;SDS011;10857;52.228;21.026;2022-10-29T08:35:35;18.50;;;9.93;;
21392;SDS011;10857;52.228;21.026;2022-10-29T08:38:05;16.70;;;9.50;;
21392;SDS011;10857;52.228;21.026;2022-10-29T08:46:34;16.90;;;9.30;;
21392;SDS011;10857;52.228;21.026;2022-10-29T08:49:24;21.10;;;9.95;;
21392;SDS011;10857;52.228;21.026;2022-10-29T08:52:02;16.50;;;9.85;;
21392;SDS011;10857;52.228;21.026;2022-10-29T08:54:33;29.50;;;11.05;;
21392;SDS011;10857;52.228;21.026;2022-10-29T08:57:07;17.92;;;10.02;;
21392;SDS011;10857;52.228;21.026;2022-10-29T08:59:42;17.25;;;10.45;;
21392;SDS011;10857;52.228;21.026;2022-10-29T09:02:33;26.25;;;11.23;;
21392;SDS011;10857;52.228;21.026;2022-10-29T09:05:00;20.92;;;10.20;;
21392;SDS011;10857;52.228;21.026;2022-10-29T09:07:43;19.75;;;10.77;;
21392;SDS011;10857;52.228;21.026;2022-10-29T09:10:50;26.27;;;10.65;;
21392;SDS011;10857;52.228;21.026;2022-10-29T09:13:25;24.60;;;11.35;;
21392;SDS011;10857;52.228;21.026;2022-10-29T09:19:24;25.70;;;11.00;;
21392;SDS011;10857;52.228;21.026;2022-10-29T09:25:02;27.40;;;12.23;;
21392;SDS011;10857;52.228;21.026;2022-10-29T09:31:06;24.25;;;11.80;;
21392;SDS011;10857;52.228;21.026;2022-10-29T09:33:39;26.27;;;11.52;;
21392;SDS011;10857;52.228;21.026;2022-10-29T09:36:13;24.20;;;11.85;;
21392;SDS011;10857;52.228;21.026;2022-10-29T09:39:08;24.27;;;12.45;;
21392;SDS011;10857;52.228;21.026;2022-10-29T09:41:37;21.52;;;12.80;;
21392;SDS011;10857;52.228;21.026;2022-10-29T09:46:38;24.95;;;12.27;;
21392;SDS011;10857;52.228;21.026;2022-10-29T09:52:13;26.85;;;13.20;;
21392;SDS011;10857;52.228;21.026;2022-10-29T09:54:47;21.45;;;13.00;;
21392;SDS011;10857;52.228;21.026;2022-10-29T09:57:22;26.45;;;13.95;;
21392;SDS011;10857;52.228;21.026;2022-10-29T10:00:06;33.00;;;14.82;;
21392;SDS011;10857;52.228;21.026;2022-10-29T10:03:10;28.85;;;14.27;;
21392;SDS011;10857;52.228;21.026;2022-10-29T10:05:56;29.08;;;14.52;;
21392;SDS011;10857;52.228;21.026;2022-10-29T10:11:39;24.17;;;14.52;;
21392;SDS011;10857;52.228;21.026;2022-10-29T10:14:20;28.73;;;15.55;;
21392;SDS011;10857;52.228;21.026;2022-10-29T10:16:59;32.28;;;15.15;;
21392;SDS011;10857;52.228;21.026;2022-10-29T10:19:29;30.63;;;16.88;;
21392;SDS011;10857;52.228;21.026;2022-10-29T10:22:01;35.50;;;16.27;;
21392;SDS011;10857;52.228;21.026;2022-10-29T10:24:31;40.70;;;17.08;;
21392;SDS011;10857;52.228;21.026;2022-10-29T10:27:22;33.80;;;17.30;;
21392;SDS011;10857;52.228;21.026;2022-10-29T10:32:52;39.22;;;16.92;;
21392;SDS011;10857;52.228;21.026;2022-10-29T10:35:26;39.67;;;18.95;;
21392;SDS011;10857;52.228;21.026;2022-10-29T10:37:55;34.33;;;18.25;;
21392;SDS011;10857;52.228;21.026;2022-10-29T10:40:25;36.85;;;19.08;;
21392;SDS011;10857;52.228;21.026;2022-10-29T10:42:53;37.38;;;18.92;;
21392;SDS011;10857;52.228;21.026;2022-10-29T10:45:23;37.03;;;18.80;;
21392;SDS011;10857;52.228;21.026;2022-10-29T10:48:06;39.80;;;18.80;;
21392;SDS011;10857;52.228;21.026;2022-10-29T10:50:35;40.70;;;19.40;;
21392;SDS011;10857;52.228;21.026;2022-10-29T10:53:14;38.78;;;20.08;;
21392;SDS011;10857;52.228;21.026;2022-10-29T10:55:52;39.60;;;19.30;;
21392;SDS011;10857;52.228;21.026;2022-10-29T10:58:28;45.58;;;20.15;;
21392;SDS011;10857;52.228;21.026;2022-10-29T11:01:08;41.00;;;20.35;;
21392;SDS011;10857;52.228;21.026;2022-10-29T11:03:42;42.30;;;19.90;;
21392;SDS011;10857;52.228;21.026;2022-10-29T11:06:31;35.75;;;18.00;;
21392;SDS011;10857;52.228;21.026;2022-10-29T11:09:21;38.75;;;20.27;;
21392;SDS011;10857;52.228;21.026;2022-10-29T11:11:56;37.38;;;19.27;;
21392;SDS011;10857;52.228;21.026;2022-10-29T11:14:32;41.58;;;19.35;;
21392;SDS011;10857;52.228;21.026;2022-10-29T11:17:36;40.95;;;19.42;;
21392;SDS011;10857;52.228;21.026;2022-10-29T11:20:24;35.28;;;18.55;;
21392;SDS011;10857;52.228;21.026;2022-10-29T11:25:49;45.42;;;19.58;;
21392;SDS011;10857;52.228;21.026;2022-10-29T11:28:32;34.58;;;18.48;;
21392;SDS011;10857;52.228;21.026;2022-10-29T11:31:08;33.65;;;18.50;;
21392;SDS011;10857;52.228;21.026;2022-10-29T11:34:09;35.42;;;18.52;;
21392;SDS011;10857;52.228;21.026;2022-10-29T11:36:51;33.78;;;18.45;;
21392;SDS011;10857;52.228;21.026;2022-10-29T11:39:28;33.40;;;18.80;;
21392;SDS011;10857;52.228;21.026;2022-10-29T11:42:10;35.42;;;18.35;;
21392;SDS011;10857;52.228;21.026;2022-10-29T11:44:39;30.20;;;18.25;;
21392;SDS011;10857;52.228;21.026;2022-10-29T11:57:58;35.33;;;18.20;;
21392;SDS011;10857;52.228;21.026;2022-10-29T12:00:33;31.05;;;18.25;;
21392;SDS011;10857;52.228;21.026;2022-10-29T12:03:48;32.15;;;17.98;;
21392;SDS011;10857;52.228;21.026;2022-10-29T12:06:38;36.97;;;18.13;;
21392;SDS011;10857;52.228;21.026;2022-10-29T12:12:52;28.70;;;16.25;;
21392;SDS011;10857;52.228;21.026;2022-10-29T12:15:39;28.73;;;16.23;;
21392;SDS011;10857;52.228;21.026;2022-10-29T12:18:25;29.65;;;16.63;;
21392;SDS011;10857;52.228;21.026;2022-10-29T12:21:21;25.50;;;16.52;;
21392;SDS011;10857;52.228;21.026;2022-10-29T12:26:52;22.85;;;16.17;;
21392;SDS011;10857;52.228;21.026;2022-10-29T12:29:30;25.85;;;15.60;;
21392;SDS011;10857;52.228;21.026;2022-10-29T12:32:23;31.15;;;16.60;;
21392;SDS011;10857;52.228;21.026;2022-10-29T12:35:05;30.65;;;16.10;;
21392;SDS011;10857;52.228;21.026;2022-10-29T12:37:42;26.15;;;16.35;;
21392;SDS011;10857;52.228;21.026;2022-10-29T12:40:33;28.92;;;15.85;;
21392;SDS011;10857;52.228;21.026;2022-10-29T12:43:36;24.10;;;16.05;;
21392;SDS011;10857;52.228;21.026;2022-10-29T12:46:10;30.55;;;16.73;;
21392;SDS011;10857;52.228;21.026;2022-10-29T12:49:03;28.88;;;16.83;;
21392;SDS011;10857;52.228;21.026;2022-10-29T12:51:56;24.92;;;15.68;;
21392;SDS011;10857;52.228;21.026;2022-10-29T18:15:32;27.05;;;14.63;;
21392;SDS011;10857;52.228;21.026;2022-10-29T18:17:59;24.17;;;16.20;;
21392;SDS011;10857;52.228;21.026;2022-10-29T18:20:26;22.13;;;15.18;;
21392;SDS011;10857;52.228;21.026;2022-10-29T18:22:53;24.58;;;15.07;;
21392;SDS011;10857;52.228;21.026;2022-10-29T18:25:21;23.50;;;14.18;;
21392;SDS011;10857;52.228;21.026;2022-10-29T18:27:48;23.27;;;14.48;;
21392;SDS011;10857;52.228;21.026;2022-10-29T18:30:20;23.38;;;14.75;;
21392;SDS011;10857;52.228;21.026;2022-10-29T18:32:50;31.38;;;15.27;;
21392;SDS011;10857;52.228;21.026;2022-10-29T18:35:17;22.85;;;14.73;;
21392;SDS011;10857;52.228;21.026;2022-10-29T18:37:44;24.00;;;14.70;;
21392;SDS011;10857;52.228;21.026;2022-10-29T18:40:12;25.60;;;14.35;;
21392;SDS011;10857;52.228;21.026;2022-10-29T18:42:39;23.20;;;14.82;;
21392;SDS011;10857;52.228;21.026;2022-10-29T18:45:06;28.17;;;14.80;;
21392;SDS011;10857;52.228;21.026;2022-10-29T18:47:33;20.70;;;14.15;;
21392;SDS011;10857;52.228;21.026;2022-10-29T18:50:00;25.80;;;15.23;;
21392;SDS011;10857;52.228;21.026;2022-10-29T18:52:27;23.98;;;15.07;;
21392;SDS011;10857;52.228;21.026;2022-10-29T18:54:54;23.33;;;14.43;;
21392;SDS011;10857;52.228;21.026;2022-10-29T18:57:21;24.67;;;15.18;;
21392;SDS011;10857;52.228;21.026;2022-10-29T18:59:48;23.35;;;14.63;;
21392;SDS011;10857;52.228;21.026;2022-10-29T19:02:15;21.13;;;14.45;;
21392;SDS011;10857;52.228;21.026;2022-10-29T19:04:42;26.02;;;14.95;;
21392;SDS011;10857;52.228;21.026;2022-10-29T19:07:09;23.73;;;15.27;;
21392;SDS011;10857;52.228;21.026;2022-10-29T19:09:36;22.45;;;14.48;;
21392;SDS011;10857;52.228;21.026;2022-10-29T19:12:03;22.15;;;15.32;;
21392;SDS011;10857;52.228;21.026;2022-10-29T19:14:30;25.13;;;14.07;;
21392;SDS011;10857;52.228;21.026;2022-10-29T19:16:57;23.48;;;14.85;;
21392;SDS011;10857;52.228;21.026;2022-10-29T19:19:24;28.50;;;14.57;;
21392;SDS011;10857;52.228;21.026;2022-10-29T19:21:51;20.80;;;14.18;;
21392;SDS011;10857;52.228;21.026;2022-10-29T19:24:18;28.92;;;15.23;;
21392;SDS011;10857;52.228;21.026;2022-10-29T19:26:45;23.00;;;14.10;;
21392;SDS011;10857;52.228;21.026;2022-10-29T19:29:12;23.60;;;14.20;;
21392;SDS011;10857;52.228;21.026;2022-10-29T19:31:39;26.70;;;15.02;;
21392;SDS011;10857;52.228;21.026;2022-10-29T19:34:06;22.13;;;14.55;;
21392;SDS011;10857;52.228;21.026;2022-10-29T19:36:34;26.33;;;14.85;;
21392;SDS011;10857;52.228;21.026;2022-10-29T19:39:02;25.50;;;15.43;;
21392;SDS011;10857;52.228;21.026;2022-10-29T19:41:29;21.13;;;14.77;;
21392;SDS011;10857;52.228;21.026;2022-10-29T19:44:00;22.58;;;14.48;;
21392;SDS011;10857;52.228;21.026;2022-10-29T19:46:28;26.52;;;16.00;;
21392;SDS011;10857;52.228;21.026;2022-10-29T19:48:56;23.35;;;14.70;;
21392;SDS011;10857;52.228;21.026;2022-10-29T19:51:24;20.83;;;14.38;;
21392;SDS011;10857;52.228;21.026;2022-10-29T19:53:51;24.20;;;15.10;;
21392;SDS011;10857;52.228;21.026;2022-10-29T19:56:18;22.02;;;13.73;;
21392;SDS011;10857;52.228;21.026;2022-10-29T19:58:46;21.60;;;14.32;;
21392;SDS011;10857;52.228;21.026;2022-10-29T20:01:14;26.48;;;14.77;;
21392;SDS011;10857;52.228;21.026;2022-10-29T20:03:43;18.85;;;13.45;;
21392;SDS011;10857;52.228;21.026;2022-10-29T20:06:10;25.33;;;13.45;;
21392;SDS011;10857;52.228;21.026;2022-10-29T20:08:38;23.77;;;14.63;;
21392;SDS011;10857;52.228;21.026;2022-10-29T20:11:05;21.98;;;14.55;;
21392;SDS011;10857;52.228;21.026;2022-10-29T20:13:32;24.08;;;14.80;;
21392;SDS011;10857;52.228;21.026;2022-10-29T20:16:05;23.65;;;14.52;;
21392;SDS011;10857;52.228;21.026;2022-10-29T20:18:34;27.73;;;15.90;;
21392;SDS011;10857;52.228;21.026;2022-10-29T20:21:03;26.48;;;15.43;;
21392;SDS011;10857;52.228;21.026;2022-10-29T20:23:35;27.83;;;16.38;;
21392;SDS011;10857;52.228;21.026;2022-10-29T20:26:03;25.15;;;16.63;;
21392;SDS011;10857;52.228;21.026;2022-10-29T20:28:31;31.15;;;16.60;;
21392;SDS011;10857;52.228;21.026;2022-10-29T20:34:05;25.58;;;16.40;;
21392;SDS011;10857;52.228;21.026;2022-10-29T20:36:34;26.35;;;16.73;;
21392;SDS011;10857;52.228;21.026;2022-10-29T20:39:01;23.67;;;14.90;;
21392;SDS011;10857;52.228;21.026;2022-10-29T20:41:28;22.50;;;15.90;;
21392;SDS011;10857;52.228;21.026;2022-10-29T20:43:56;29.02;;;16.40;;
21392;SDS011;10857;52.228;21.026;2022-10-29T20:46:24;23.15;;;15.98;;
21392;SDS011;10857;52.228;21.026;2022-10-29T20:48:52;24.25;;;15.82;;
21392;SDS011;10857;52.228;21.026;2022-10-29T20:51:19;28.20;;;15.77;;
21392;SDS011;10857;52.228;21.026;2022-10-29T20:56:51;25.92;;;15.80;;
21392;SDS011;10857;52.228;21.026;2022-10-29T20:59:26;24.98;;;16.00;;
21392;SDS011;10857;52.228;21.026;2022-10-29T21:01:53;24.05;;;15.70;;
21392;SDS011;10857;52.228;21.026;2022-10-29T21:04:20;27.13;;;16.00;;
21392;SDS011;10857;52.228;21.026;2022-10-29T21:06:48;24.08;;;15.68;;
21392;SDS011;10857;52.228;21.026;2022-10-29T21:09:15;28.80;;;16.35;;
21392;SDS011;10857;52.228;21.026;2022-10-29T21:11:41;27.40;;;15.90;;
21392;SDS011;10857;52.228;21.026;2022-10-29T21:14:08;27.10;;;16.90;;
21392;SDS011;10857;52.228;21.026;2022-10-29T21:16:35;27.52;;;16.67;;
21392;SDS011;10857;52.228;21.026;2022-10-29T21:19:03;26.27;;;16.90;;
21392;SDS011;10857;52.228;21.026;2022-10-29T21:21:31;27.27;;;17.63;;
21392;SDS011;10857;52.228;21.026;2022-10-29T21:23:58;30.40;;;18.15;;
21392;SDS011;10857;52.228;21.026;2022-10-29T21:26:25;25.88;;;18.80;;